Latest Weather Observations for Westmere

IDV60801

Issued at 9:02 pm EST Thursday 20 June 2019 (issued every 10 minutes, with the page automatically refreshed every 10 minutes)

About weather observations | Map of weather stations | Latest weather observations for VIC | Other Formats
Station Details ID: 089112 Name: WESTMERE Lat: -37.71 Lon: 142.94 Height: 226.0 m
Data from the previous 72 hours. | See also: Recent months at Westmere
Date/Time
EST
Temp
°C
App
Temp
°C
Dew
Point
°C
Rel
Hum
%
Delta-T
°C
Wind Press
QNH
hPa
Press
MSL
hPa
Rain since
9am
mm
Dir  Spd
km/h
Gust
km/h
Spd
kts
Gust
kts
20/09:00pm 3.2 0.2 1.9 91 0.5 WNW 7 9 4 5 1027.5 1027.9 0.0
20/08:30pm 4.2 1.4 2.9 91 0.5 W 7 9 4 5 1027.6 1028.0 0.0
20/08:00pm 4.2 1.5 2.9 91 0.5 SW 6 7 3 4 1027.5 1027.9 0.0
20/07:30pm 4.7 2.1 3.2 90 0.6 SW 6 6 3 3 1027.2 1027.6 0.0
20/07:00pm 4.8 2.2 3.1 89 0.7 SSW 6 7 3 4 1026.9 1027.3 0.0
20/06:30pm 5.5 2.3 3.3 86 0.9 SW 9 13 5 7 1026.5 1026.9 0.0
20/06:00pm 5.8 2.6 3.3 84 1.0 WSW 9 11 5 6 1026.2 1026.7 0.0
20/05:30pm 6.3 3.5 3.3 81 1.3 SW 7 9 4 5 1026.0 1026.5 0.0
20/05:00pm 7.2 3.6 3.1 75 1.7 SW 11 15 6 8 1025.5 1025.9 0.0
20/04:30pm 7.9 4.5 3.8 75 1.8 SW 11 17 6 9 1025.4 1025.8 0.0
20/04:00pm 9.4 5.0 4.8 73 2.1 SSW 17 22 9 12 1025.2 1025.6 0.0
20/03:30pm 9.7 4.9 4.9 72 2.2 SW 19 26 10 14 1025.1 1025.5 0.0
20/03:00pm 10.4 6.6 3.9 64 2.9 WSW 13 20 7 11 1025.0 1025.4 0.0
20/02:30pm 10.2 6.1 4.6 68 2.5 SW 15 24 8 13 1025.1 1025.5 0.0
20/02:00pm 10.4 6.8 4.8 68 2.5 WSW 13 20 7 11 1025.1 1025.5 0.0
20/01:30pm 10.1 6.8 4.5 68 2.5 WSW 11 19 6 10 1025.3 1025.7 0.0
20/01:00pm 9.6 6.3 4.8 72 2.2 WSW 11 17 6 9 1025.7 1026.1 0.0
20/12:30pm 9.3 6.4 4.5 72 2.2 WSW 9 17 5 9 1026.1 1026.6 0.0
20/12:00pm 8.6 5.7 4.8 77 1.7 WSW 9 13 5 7 1026.5 1026.9 0.0
20/11:30am 7.9 5.0 6.4 90 0.7 WSW 11 13 6 7 1026.8 1027.2 0.0
20/11:00am 7.1 5.0 6.5 96 0.3 W 7 11 4 6 1027.0 1027.4 0.0
20/10:30am 6.0 3.7 5.6 97 0.2 W 7 9 4 5 1027.1 1027.5 0.0
20/10:00am 4.7 2.3 4.3 97 0.2 W 6 7 3 4 1026.9 1027.3 0.0
20/09:30am 4.3 2.2 4.0 98 0.1 NW 4 6 2 3 1026.7 1027.1 0.0
20/09:00am 3.4 0.8 3.1 98 0.1 NW 6 6 3 3 1026.5 1026.9 0.0
20/08:30am 0.6 -1.4 0.2 97 0.1 CALM 0 0 0 0 1026.6 1027.0 0.0
20/08:00am 0.5 -1.5 0.1 97 0.1 CALM 0 0 0 0 1026.5 1026.9 0.0
20/07:30am 0.0 -2.0 -0.4 97 0.1 CALM 0 0 0 0 1026.4 1026.8 0.0
20/07:00am 1.7 -1.4 1.3 97 0.2 WNW 7 9 4 5 1026.1 1026.6 0.0
20/06:30am 1.0 -0.9 0.6 97 0.1 CALM 0 0 0 0 1026.0 1026.5 0.0
20/06:00am 1.4 -0.8 1.0 97 0.2 N 2 6 1 3 1025.9 1026.4 0.0
20/05:30am 0.8 -1.2 0.2 96 0.2 CALM 0 0 0 0 1025.8 1026.2 0.0
20/05:00am 0.8 -1.2 0.2 96 0.2 CALM 0 0 0 0 1025.9 1026.4 0.0
20/04:30am 0.9 -1.8 0.5 97 0.1 NNE 4 6 2 3 1025.8 1026.2 0.0
20/04:00am -0.1 -2.2 -0.7 96 0.2 CALM 0 0 0 0 1025.9 1026.4 0.0
20/03:30am 0.1 -2.0 -0.5 96 0.2 CALM 0 0 0 0 1026.0 1026.5 0.0
20/03:00am 0.1 -2.0 -0.5 96 0.2 CALM 0 0 0 0 1026.0 1026.5 0.0
20/02:30am 0.3 -1.7 -0.3 96 0.2 CALM 0 0 0 0 1026.0 1026.5 0.0
20/02:00am 1.6 -0.2 1.0 96 0.2 CALM 0 0 0 0 1026.0 1026.5 0.0
20/01:30am 1.0 -0.9 0.3 95 0.3 CALM 0 0 0 0 1026.1 1026.6 0.0
20/01:00am 1.5 -0.7 0.8 95 0.3 NW 2 4 1 2 1026.2 1026.7 0.0
20/12:30am 2.7 -0.3 2.0 95 0.3 NW 7 7 4 4 1026.2 1026.7 0.0
20/12:00am 2.6 0.1 1.7 94 0.4 NW 4 6 2 3 1026.4 1026.8 0.0
 
Date/Time
EST
Temp
°C
App
Temp
°C
Dew
Point
°C
Rel
Hum
%
Delta-T
°C
Wind Press
QNH
hPa
Press
MSL
hPa
Rain since
9am
mm
Dir  Spd
km/h
Gust
km/h
Spd
kts
Gust
kts
19/11:30pm 2.6 0.9 1.6 93 0.4 CALM 0 0 0 0 1026.6 1027.0 0.0
19/11:00pm 3.2 1.6 2.2 93 0.4 CALM 0 0 0 0 1026.7 1027.1 0.0
19/10:30pm 4.7 3.3 3.7 93 0.4 CALM 0 0 0 0 1026.7 1027.1 0.0
19/10:00pm 4.9 3.5 3.7 92 0.5 CALM 0 0 0 0 1026.7 1027.1 0.0
19/09:30pm 5.3 4.0 4.0 91 0.6 CALM 0 0 0 0 1026.8 1027.2 0.0
19/09:00pm 5.3 3.9 3.8 90 0.6 CALM 0 0 0 0 1026.7 1027.1 0.0
19/08:30pm 5.8 3.8 4.3 90 0.6 W 4 6 2 3 1026.8 1027.2 0.0
19/08:00pm 6.0 4.0 4.2 88 0.8 WSW 4 6 2 3 1026.7 1027.1 0.0
19/07:30pm 5.7 3.6 3.7 87 0.9 WSW 4 6 2 3 1026.8 1027.2 0.0
19/07:00pm 6.1 3.6 3.6 84 1.1 WSW 6 7 3 4 1026.6 1027.0 0.0
19/06:30pm 7.0 5.3 4.0 81 1.3 SSW 2 4 1 2 1026.5 1026.9 0.0
19/06:00pm 7.8 5.9 4.9 82 1.3 SSW 4 4 2 2 1026.4 1026.8 0.0
19/05:30pm 8.3 6.1 5.4 82 1.3 S 6 6 3 3 1026.4 1026.8 0.0
19/05:00pm 8.8 6.3 5.0 77 1.7 S 7 7 4 4 1026.1 1026.6 0.0
19/04:30pm 9.0 6.6 5.2 77 1.7 S 7 13 4 7 1026.0 1026.5 0.0
19/04:00pm 8.6 6.2 4.2 74 1.9 SSE 6 7 3 4 1025.8 1026.2 0.0
19/03:30pm 9.3 5.6 4.5 72 2.2 S 13 19 7 10 1026.0 1026.5 0.0
19/03:00pm 9.6 7.0 4.0 68 2.5 SSW 7 11 4 6 1026.1 1026.6 0.0
19/02:30pm 10.1 7.0 3.8 65 2.8 SW 9 17 5 9 1026.0 1026.5 0.0
19/02:00pm 9.7 6.5 3.0 63 2.9 SSW 9 15 5 8 1026.2 1026.7 0.0
19/01:30pm 9.8 7.2 4.0 67 2.6 SSW 7 13 4 7 1026.2 1026.7 0.0
19/01:00pm 9.3 6.0 4.7 73 2.1 WSW 11 13 6 7 1026.7 1027.1 0.0
19/12:30pm 8.3 4.3 4.9 79 1.5 WSW 15 19 8 10 1027.0 1027.4 0.0
19/12:00pm 8.9 5.7 5.3 78 1.6 WSW 11 17 6 9 1027.2 1027.6 0.0
19/11:30am 8.6 5.8 5.2 79 1.5 WSW 9 15 5 8 1027.4 1027.8 0.0
19/11:00am 7.7 5.2 5.0 83 1.2 WSW 7 13 4 7 1027.5 1027.9 0.0
19/10:30am 7.3 4.1 5.3 87 0.9 W 11 15 6 8 1027.5 1027.9 0.0
19/10:00am 6.4 3.6 5.0 91 0.6 W 9 13 5 7 1027.1 1027.5 0.0
19/09:30am 5.8 3.3 4.9 94 0.4 WSW 7 13 4 7 1026.7 1027.1 0.0
19/09:00am 4.6 1.6 3.9 95 0.3 W 9 13 5 7 1026.4 1026.8 0.8
19/08:30am 3.5 0.7 2.9 96 0.2 W 7 9 4 5 1026.2 1026.7 0.8
19/08:00am 2.7 -0.3 2.0 95 0.3 W 7 7 4 4 1025.7 1026.1 0.8
19/07:30am 2.2 -1.3 1.5 95 0.3 WNW 9 11 5 6 1025.7 1026.1 0.6
19/07:00am 3.3 1.0 2.6 95 0.3 W 4 6 2 3 1025.5 1025.9 0.6
19/06:30am 3.3 0.0 2.6 95 0.3 NW 9 11 5 6 1025.1 1025.5 0.6
19/06:00am 3.3 0.4 2.6 95 0.3 WNW 7 11 4 6 1024.7 1025.1 0.6
19/05:30am 2.0 -1.1 1.3 95 0.3 WNW 7 9 4 5 1024.6 1025.0 0.6
19/05:00am 1.7 -1.9 0.8 94 0.3 NW 9 9 5 5 1024.4 1024.8 0.6
19/04:30am 2.1 -1.0 1.1 93 0.4 WNW 7 9 4 5 1024.5 1024.9 0.6
19/04:00am 2.6 -0.3 1.6 93 0.4 NW 6 6 3 3 1024.4 1024.8 0.6
19/03:30am 2.8 -0.1 1.6 92 0.5 WNW 6 7 3 4 1024.3 1024.7 0.6
19/03:00am 4.0 1.3 2.8 92 0.5 WSW 6 7 3 4 1024.4 1024.8 0.6
19/02:30am 3.9 1.0 2.6 91 0.5 WNW 7 11 4 6 1024.2 1024.6 0.6
19/02:00am 4.5 1.0 3.3 92 0.5 WNW 11 17 6 9 1024.0 1024.4 0.6
19/01:30am 4.3 2.1 3.1 92 0.5 W 4 9 2 5 1024.1 1024.5 0.6
19/01:00am 4.6 1.8 3.3 91 0.5 W 7 11 4 6 1023.8 1024.2 0.6
19/12:30am 5.2 2.2 3.9 91 0.6 WNW 9 11 5 6 1023.9 1024.3 0.6
19/12:00am 4.7 2.1 3.4 91 0.5 WNW 6 7 3 4 1024.2 1024.6 0.6
 
Date/Time
EST
Temp
°C
App
Temp
°C
Dew
Point
°C
Rel
Hum
%
Delta-T
°C
Wind Press
QNH
hPa
Press
MSL
hPa
Rain since
9am
mm
Dir  Spd
km/h
Gust
km/h
Spd
kts
Gust
kts
18/11:30pm 4.4 1.6 2.9 90 0.6 W 7 11 4 6 1024.3 1024.7 0.4
18/11:00pm 4.7 1.5 3.2 90 0.6 WNW 9 13 5 7 1024.1 1024.5 0.4
18/10:30pm 5.1 2.0 3.4 89 0.7 W 9 15 5 8 1023.8 1024.2 0.4
18/10:00pm 4.8 2.0 3.1 89 0.7 W 7 11 4 6 1023.7 1024.1 0.4
18/09:30pm 5.2 2.4 3.4 88 0.8 W 7 11 4 6 1023.7 1024.1 0.4
18/09:00pm 5.4 2.3 3.7 89 0.7 WNW 9 13 5 7 1023.5 1023.9 0.4
18/08:30pm 5.5 2.8 3.5 87 0.8 W 7 9 4 5 1023.3 1023.7 0.4
18/08:00pm 6.4 3.4 4.1 85 1.0 W 9 13 5 7 1023.2 1023.6 0.4
18/07:30pm 6.5 3.1 3.8 83 1.2 SW 11 17 6 9 1023.0 1023.4 0.4
18/07:00pm 6.3 3.5 3.3 81 1.3 W 7 11 4 6 1022.6 1023.0 0.4
18/06:30pm 7.0 2.3 3.3 77 1.6 WSW 17 24 9 13 1022.2 1022.6 0.4
18/06:00pm 7.3 3.0 3.2 75 1.7 WSW 15 19 8 10 1021.8 1022.1 0.4
18/05:30pm 7.7 3.5 3.7 76 1.7 WSW 15 20 8 11 1021.6 1022.0 0.4
18/05:00pm 8.1 4.6 3.6 73 1.9 WSW 11 17 6 9 1021.2 1021.6 0.4
18/04:30pm 8.6 5.6 4.2 74 2.0 WSW 9 15 5 8 1020.9 1021.3 0.4
18/04:00pm 8.5 4.4 4.1 74 1.9 SW 15 20 8 11 1020.7 1021.1 0.4
18/03:30pm 8.3 3.9 4.5 77 1.7 WSW 17 33 9 18 1020.5 1020.9 0.4
18/03:00pm 9.3 4.9 4.7 73 2.1 WSW 17 24 9 13 1019.9 1020.3 0.4
18/02:30pm 9.0 5.4 5.2 77 1.7 WSW 13 20 7 11 1019.8 1020.2 0.4
18/02:00pm 8.8 4.1 5.2 78 1.6 WSW 19 30 10 16 1019.9 1020.3 0.4
18/01:30pm 8.3 3.0 5.2 81 1.4 WSW 22 28 12 15 1019.9 1020.3 0.4
18/01:00pm 7.9 3.2 6.2 89 0.8 SW 20 26 11 14 1019.9 1020.3 0.4
18/12:30pm 7.1 1.1 5.1 87 0.9 SW 26 33 14 18 1020.0 1020.4 0.4
18/12:00pm 7.6 0.4 5.2 85 1.1 SW 32 44 17 24 1019.9 1020.3 0.2
18/11:30am 7.5 0.6 4.8 83 1.2 WSW 30 52 16 28 1019.6 1020.0 0.2
18/11:29am 7.8 1.4 5.1 83 1.2 WSW 28 52 15 28 1019.5 1019.9 0.2
18/11:00am 8.5 4.5 6.5 87 0.9 WSW 17 22 9 12 1019.1 1019.5 0.2
18/10:30am 8.5 3.1 6.3 86 1.0 WSW 24 35 13 19 1018.9 1019.3 0.0
18/10:00am 8.6 5.1 7.1 90 0.7 WSW 15 22 8 12 1018.3 1018.6 0.0
18/09:30am 8.2 4.2 6.8 91 0.7 W 17 24 9 13 1017.8 1018.1 0.0
18/09:00am 8.0 4.4 6.6 91 0.7 WNW 15 22 8 12 1017.5 1017.8 1.4
18/08:30am 8.3 4.3 6.6 89 0.8 NW 17 22 9 12 1016.9 1017.3 1.2
18/08:00am 7.9 4.2 6.2 89 0.8 WNW 15 22 8 12 1016.5 1016.9 1.2
18/07:30am 8.1 3.5 6.6 90 0.7 NW 20 30 11 16 1016.0 1016.4 1.2
18/07:00am 8.3 4.0 6.9 91 0.7 NW 19 26 10 14 1015.8 1016.2 1.2
18/06:30am 8.3 4.8 7.1 92 0.6 NNW 15 26 8 14 1015.5 1015.9 1.2
18/06:00am 8.5 5.0 7.1 91 0.7 NNW 15 22 8 12 1015.2 1015.6 1.2
18/05:30am 8.6 4.3 7.1 90 0.7 NW 19 24 10 13 1015.2 1015.6 0.8
18/05:00am 8.9 4.9 6.7 86 1.0 NNW 17 28 9 15 1015.0 1015.4 0.2
18/04:30am 9.1 5.8 6.2 82 1.4 NNW 13 17 7 9 1014.9 1015.3 0.0
18/04:00am 9.2 5.0 5.9 80 1.5 N 17 20 9 11 1014.9 1015.3 0.0
18/03:30am 9.4 4.8 5.8 78 1.7 N 19 24 10 13 1015.1 1015.5 0.0
18/03:00am 8.8 5.0 5.9 82 1.3 N 15 20 8 11 1015.1 1015.5 0.0
18/02:30am 9.5 4.0 6.0 79 1.6 N 24 32 13 17 1015.3 1015.7 0.0
18/02:00am 9.8 4.4 6.2 78 1.7 NNW 24 33 13 18 1015.2 1015.6 0.0
18/01:30am 9.9 4.8 6.1 77 1.8 N 22 28 12 15 1015.4 1015.8 0.0
18/01:00am 9.8 6.9 6.3 79 1.6 NNW 11 17 6 9 1016.0 1016.4 0.0
18/12:30am 10.0 5.0 6.3 78 1.7 N 22 28 12 15 1016.1 1016.5 0.0
18/12:00am 10.0 5.0 6.5 79 1.7 N 22 30 12 16 1016.2 1016.6 0.0
 
Date/Time
EST
Temp
°C
App
Temp
°C
Dew
Point
°C
Rel
Hum
%
Delta-T
°C
Wind Press
QNH
hPa
Press
MSL
hPa
Rain since
9am
mm
Dir  Spd
km/h
Gust
km/h
Spd
kts
Gust
kts
17/11:30pm 9.8 4.9 6.7 81 1.5 N 22 28 12 15 1016.4 1016.8 0.0
17/11:00pm 9.9 5.0 7.0 82 1.4 N 22 26 12 14 1016.8 1017.2 0.0
17/10:30pm 9.6 5.7 6.9 83 1.3 N 17 22 9 12 1017.0 1017.4 0.0
17/10:00pm 9.7 6.5 6.8 82 1.4 N 13 19 7 10 1017.6 1017.9 0.0
17/09:30pm 10.2 5.0 7.1 81 1.5 N 24 33 13 18 1017.6 1017.9 0.0

Other formats

Comma delimited format used in spreadsheet applications
http://www.bom.gov.au/fwo/IDV60801/IDV60801.95840.axf

JavaScript Object Notation format (JSON) in row-major order
http://www.bom.gov.au/fwo/IDV60801/IDV60801.95840.json

Data quality

Most of these data are generated automatically and are frequently updated. Quality checks on data are not normally performed. It is possible for incorrect values to appear. Refer to information at About Latest Weather Observations and please check the disclaimer before using these data.